createdAt,value
2023-02-03T00:05:37.247Z,87.76
2023-02-03T00:06:41.101Z,87.88
2023-02-03T00:07:44.334Z,87.75
2023-02-03T00:08:47.222Z,87.68
2023-02-03T00:10:09.262Z,87.62
2023-02-03T00:11:11.110Z,87.90
2023-02-03T00:12:14.573Z,87.78
2023-02-03T00:13:16.449Z,87.95
2023-02-03T00:14:19.311Z,87.87
2023-02-03T00:15:23.165Z,87.94
2023-02-03T00:16:26.366Z,87.52
2023-02-03T00:17:29.918Z,87.84
2023-02-03T00:18:32.705Z,87.67
2023-02-03T00:19:35.439Z,87.52
2023-02-03T00:20:37.327Z,87.77
2023-02-03T00:21:40.143Z,87.77
2023-02-03T00:22:41.952Z,87.55
2023-02-03T00:23:44.835Z,87.82
2023-02-03T00:24:46.622Z,87.45
2023-02-03T00:25:49.392Z,87.50
2023-02-03T00:27:11.880Z,87.95
2023-02-03T00:28:14.194Z,87.71
2023-02-03T00:29:18.556Z,87.44
2023-02-03T00:30:20.864Z,87.56
2023-02-03T00:31:26.051Z,87.83
2023-02-03T00:32:28.203Z,87.34
2023-02-03T00:33:33.741Z,87.42
2023-02-03T00:34:37.294Z,87.64
2023-02-03T00:35:39.499Z,87.75
2023-02-03T00:36:43.119Z,87.54
2023-02-03T00:37:45.045Z,87.64
2023-02-03T00:38:49.013Z,87.66
2023-02-03T00:39:50.854Z,87.26
2023-02-03T00:40:54.373Z,87.10
2023-02-03T00:41:56.210Z,87.38
2023-02-03T00:43:17.974Z,87.54
2023-02-03T00:44:19.845Z,87.19
2023-02-03T00:45:22.966Z,87.38
2023-02-03T00:46:25.155Z,87.37
2023-02-03T00:47:27.980Z,87.51
2023-02-03T00:48:31.298Z,86.98
2023-02-03T00:49:34.905Z,87.42
2023-02-03T00:50:39.179Z,87.29
2023-02-03T00:51:41.889Z,87.13
2023-02-03T00:52:43.681Z,86.99
2023-02-03T00:53:46.736Z,86.98
2023-02-03T00:54:48.547Z,87.33
2023-02-03T00:55:53.031Z,86.97
2023-02-03T00:56:54.919Z,87.29
2023-02-03T00:57:57.671Z,86.98
2023-02-03T00:58:59.946Z,86.88
2023-02-03T01:00:03.375Z,87.09
2023-02-03T01:01:05.760Z,87.07
2023-02-03T01:02:08.793Z,86.78
2023-02-03T01:03:10.777Z,87.11
2023-02-03T01:04:15.201Z,87.17
2023-02-03T01:05:16.982Z,86.96
2023-02-03T01:06:21.998Z,86.73
2023-02-03T01:07:23.781Z,86.97
2023-02-03T01:08:26.984Z,86.76
2023-02-03T01:09:29.391Z,86.67
2023-02-03T01:10:32.256Z,86.82
2023-02-03T01:11:34.330Z,86.84
2023-02-03T01:12:37.575Z,86.92
2023-02-03T01:13:39.810Z,86.74
2023-02-03T01:14:44.439Z,86.59
2023-02-03T01:15:47.449Z,86.59
2023-02-03T01:16:50.399Z,86.93
2023-02-03T01:17:52.668Z,86.74
2023-02-03T01:18:56.495Z,86.81
2023-02-03T01:20:00.073Z,86.75
2023-02-03T01:21:08.131Z,86.66
2023-02-03T01:22:10.422Z,86.56
2023-02-03T01:23:13.245Z,86.27
2023-02-03T01:24:15.128Z,86.35
2023-02-03T01:25:17.938Z,86.47
2023-02-03T01:26:21.380Z,86.23
2023-02-03T01:27:24.410Z,86.26
2023-02-03T01:28:26.214Z,86.50
2023-02-03T01:29:29.158Z,86.46
2023-02-03T01:30:31.045Z,86.23
2023-02-03T01:31:37.040Z,86.11
2023-02-03T01:32:39.090Z,86.26
2023-02-03T01:33:42.494Z,86.16
2023-02-03T01:34:44.375Z,86.53
2023-02-03T01:35:48.534Z,86.12
2023-02-03T01:36:51.593Z,86.16
2023-02-03T01:37:53.679Z,86.31
2023-02-03T01:38:56.853Z,86.14
2023-02-03T01:39:58.677Z,86.16
2023-02-03T01:41:02.934Z,86.05
2023-02-03T01:42:05.858Z,86.08
2023-02-03T01:43:10.259Z,85.79
2023-02-03T01:44:43.779Z,86.19
2023-02-03T01:45:47.094Z,85.77
2023-02-03T01:46:50.247Z,85.69
2023-02-03T01:47:56.074Z,85.77
2023-02-03T01:49:03.815Z,85.50
2023-02-03T01:50:11.130Z,85.66
2023-02-03T01:51:14.464Z,85.69
2023-02-03T01:52:17.830Z,85.73
2023-02-03T01:53:20.678Z,85.12
2023-02-03T01:54:24.589Z,85.62
2023-02-03T01:55:34.804Z,85.45
2023-02-03T01:56:39.556Z,85.22
2023-02-03T01:57:46.841Z,85.34
2023-02-03T01:58:49.985Z,85.14
2023-02-03T01:59:53.877Z,85.25
2023-02-03T02:00:57.515Z,85.28
2023-02-03T02:02:01.676Z,85.41
2023-02-03T02:03:06.358Z,85.21
2023-02-03T02:04:08.538Z,85.01
2023-02-03T02:05:17.684Z,84.96
2023-02-03T02:06:21.078Z,84.86
2023-02-03T02:07:24.661Z,84.65
2023-02-03T02:08:28.038Z,84.87
2023-02-03T02:09:32.151Z,84.72
2023-02-03T02:10:35.223Z,84.64
2023-02-03T02:11:37.597Z,84.62
2023-02-03T02:12:40.622Z,85.04
2023-02-03T02:13:43.229Z,84.88
2023-02-03T02:14:47.327Z,84.92
2023-02-03T02:15:55.286Z,84.62
2023-02-03T02:17:04.308Z,84.55
2023-02-03T02:18:17.260Z,84.59
2023-02-03T02:19:41.519Z,84.64
2023-02-03T02:21:12.680Z,84.69
2023-02-03T02:22:20.470Z,84.52
2023-02-03T02:23:39.450Z,84.69
2023-02-03T02:25:04.277Z,84.56
2023-02-03T02:26:38.722Z,84.65
2023-02-03T02:28:03.341Z,84.91
2023-02-03T02:29:27.566Z,84.90
2023-02-03T02:30:55.657Z,84.57
2023-02-03T02:32:05.906Z,84.81
2023-02-03T02:33:15.817Z,84.73
2023-02-03T02:34:24.570Z,84.78
2023-02-03T02:35:37.371Z,84.46
2023-02-03T02:36:43.262Z,84.41
2023-02-03T02:37:49.770Z,84.64
2023-02-03T02:38:58.703Z,84.54
2023-02-03T02:40:08.761Z,84.35
2023-02-03T02:41:16.746Z,84.53
2023-02-03T02:42:25.795Z,84.78
2023-02-03T02:43:33.972Z,84.49
2023-02-03T02:44:40.564Z,84.72
2023-02-03T02:45:46.651Z,84.69
2023-02-03T02:46:51.552Z,84.31
2023-02-03T02:47:57.966Z,84.16
2023-02-03T02:49:06.226Z,84.42
2023-02-03T02:50:13.468Z,84.04
2023-02-03T02:51:16.853Z,84.40
2023-02-03T02:52:19.775Z,83.79
2023-02-03T02:53:27.022Z,84.02
2023-02-03T02:54:30.798Z,83.86
2023-02-03T02:55:36.074Z,84.04
2023-02-03T02:56:41.500Z,83.90
2023-02-03T02:57:45.191Z,83.87
2023-02-03T02:58:49.059Z,83.75
2023-02-03T02:59:51.886Z,83.90
2023-02-03T03:00:54.598Z,83.53
2023-02-03T03:01:57.513Z,83.31
2023-02-03T03:03:12.608Z,83.68
2023-02-03T03:04:17.210Z,83.04
2023-02-03T03:05:19.439Z,83.33
2023-02-03T03:06:30.439Z,83.18
2023-02-03T03:07:36.047Z,82.93
2023-02-03T03:08:42.884Z,83.18
2023-02-03T03:09:48.449Z,83.07
2023-02-03T03:10:51.734Z,82.84
2023-02-03T03:11:57.647Z,83.35
2023-02-03T03:13:02.393Z,83.25
2023-02-03T03:14:05.797Z,83.26
2023-02-03T03:15:13.276Z,83.27
2023-02-03T03:16:15.971Z,83.40
2023-02-03T03:17:23.538Z,83.35
2023-02-03T03:18:30.552Z,83.19
2023-02-03T03:19:35.866Z,83.48
2023-02-03T03:20:40.532Z,83.34
2023-02-03T03:21:46.591Z,83.34
2023-02-03T03:22:51.181Z,83.20
2023-02-03T03:23:56.029Z,83.04
2023-02-03T03:25:01.183Z,83.21
2023-02-03T03:26:11.097Z,83.30
2023-02-03T03:27:15.401Z,83.14
2023-02-03T03:28:26.550Z,83.09
2023-02-03T03:29:32.066Z,83.29
2023-02-03T03:30:36.474Z,83.23
2023-02-03T03:31:39.181Z,83.10
2023-02-03T03:32:42.309Z,83.17
2023-02-03T03:33:45.822Z,83.03
2023-02-03T03:34:48.813Z,82.71
2023-02-03T03:35:55.251Z,82.71
2023-02-03T03:37:02.574Z,82.82
2023-02-03T03:38:08.268Z,82.68
2023-02-03T03:39:15.300Z,82.91
2023-02-03T03:40:20.525Z,82.84
2023-02-03T03:41:31.499Z,82.57
2023-02-03T03:42:36.456Z,82.94
2023-02-03T03:43:42.296Z,82.77
2023-02-03T03:44:50.008Z,82.89
2023-02-03T03:45:55.931Z,82.72
2023-02-03T03:47:03.724Z,82.68
2023-02-03T03:48:08.747Z,82.38
2023-02-03T03:49:12.555Z,82.47
2023-02-03T03:50:18.841Z,82.77
2023-02-03T03:51:24.672Z,82.66
2023-02-03T03:52:30.392Z,82.41
2023-02-03T03:53:34.261Z,82.26
2023-02-03T03:54:37.733Z,82.37
2023-02-03T03:55:40.479Z,82.37
2023-02-03T03:56:48.165Z,82.50
2023-02-03T03:57:55.291Z,82.41
2023-02-03T03:58:59.710Z,82.07
2023-02-03T04:00:02.392Z,82.15
2023-02-03T04:01:15.374Z,82.27
2023-02-03T04:02:19.442Z,82.25
2023-02-03T04:03:24.568Z,82.17
2023-02-03T04:04:29.384Z,82.14
2023-02-03T04:05:32.278Z,82.09
2023-02-03T04:06:35.045Z,82.19
2023-02-03T04:07:41.862Z,82.18
2023-02-03T04:08:44.726Z,82.31
2023-02-03T04:09:46.571Z,82.19
2023-02-03T04:10:49.418Z,82.25
2023-02-03T04:12:03.363Z,82.25
2023-02-03T04:13:06.871Z,82.27
2023-02-03T04:14:08.730Z,82.24
2023-02-03T04:15:11.618Z,82.39
2023-02-03T04:16:13.498Z,82.39
2023-02-03T04:17:16.515Z,82.24
2023-02-03T04:18:18.306Z,82.10
2023-02-03T04:19:21.105Z,82.11
2023-02-03T04:20:24.886Z,82.19
2023-02-03T04:21:27.812Z,82.35
2023-02-03T04:22:29.587Z,82.19
2023-02-03T04:23:32.501Z,82.21
2023-02-03T04:24:34.289Z,82.27
2023-02-03T04:25:37.121Z,82.16
2023-02-03T04:26:39.664Z,82.19
2023-02-03T04:27:42.609Z,82.24
2023-02-03T04:28:44.399Z,82.27
2023-02-03T04:29:47.539Z,82.38
2023-02-03T04:30:49.397Z,82.15
2023-02-03T04:31:52.174Z,82.36
2023-02-03T04:32:54.222Z,82.50
2023-02-03T04:33:57.000Z,82.27
2023-02-03T04:34:58.873Z,82.31
2023-02-03T04:36:03.119Z,82.29
2023-02-03T04:37:05.914Z,82.29
2023-02-03T04:38:07.680Z,82.20
2023-02-03T04:39:10.530Z,82.44
2023-02-03T04:40:12.683Z,82.34
2023-02-03T04:41:15.641Z,82.41
2023-02-03T04:42:37.019Z,82.41
2023-02-03T04:43:39.828Z,82.45
2023-02-03T04:44:41.610Z,82.54
2023-02-03T04:45:44.391Z,82.60
2023-02-03T04:46:46.215Z,82.91
2023-02-03T04:47:54.299Z,82.84
2023-02-03T04:48:56.754Z,82.77
2023-02-03T04:50:00.211Z,82.75
2023-02-03T04:51:04.641Z,82.82
2023-02-03T04:52:08.003Z,82.87
2023-02-03T04:53:09.814Z,82.73
2023-02-03T04:54:12.695Z,82.91
2023-02-03T04:55:14.701Z,82.81
2023-02-03T04:56:17.463Z,82.98
2023-02-03T04:57:19.290Z,82.85
2023-02-03T04:58:22.454Z,82.83
2023-02-03T04:59:24.247Z,82.83
2023-02-03T05:00:27.716Z,82.88
2023-02-03T05:01:29.677Z,82.89
2023-02-03T05:02:32.460Z,82.77
2023-02-03T05:03:34.300Z,82.82
2023-02-03T05:04:37.187Z,82.98
2023-02-03T05:05:38.968Z,83.08
2023-02-03T05:06:43.051Z,82.98
2023-02-03T05:07:45.306Z,82.95
2023-02-03T05:08:48.068Z,83.08
2023-02-03T05:09:49.852Z,83.10
2023-02-03T05:10:52.817Z,83.04
2023-02-03T05:11:54.960Z,83.04
2023-02-03T05:12:57.832Z,83.03
2023-02-03T05:14:00.004Z,83.00
2023-02-03T05:15:02.819Z,83.09
2023-02-03T05:16:05.367Z,83.19
2023-02-03T05:17:08.508Z,83.24
2023-02-03T05:18:10.455Z,83.16
2023-02-03T05:19:13.251Z,83.26
2023-02-03T05:20:15.623Z,83.29
2023-02-03T05:21:18.375Z,83.19
2023-02-03T05:22:21.521Z,83.39
2023-02-03T05:23:24.788Z,83.28
2023-02-03T05:24:26.613Z,83.07
2023-02-03T05:25:29.404Z,83.29
2023-02-03T05:26:31.575Z,83.31
2023-02-03T05:27:34.320Z,82.98
2023-02-03T05:28:36.211Z,83.26
2023-02-03T05:29:39.119Z,83.20
2023-02-03T05:30:40.937Z,82.86
2023-02-03T05:31:43.738Z,83.20
2023-02-03T05:32:45.929Z,83.18
2023-02-03T05:33:48.692Z,82.86
2023-02-03T05:34:50.492Z,83.16
2023-02-03T05:35:53.481Z,83.22
2023-02-03T05:36:55.389Z,83.15
2023-02-03T05:38:00.405Z,83.16
2023-02-03T05:39:02.327Z,83.50
2023-02-03T05:40:23.603Z,83.40
2023-02-03T05:41:43.830Z,83.37
2023-02-03T05:42:50.008Z,83.49
2023-02-03T05:43:52.827Z,83.33
2023-02-03T05:44:55.629Z,83.71
2023-02-03T05:46:00.153Z,83.54
2023-02-03T05:47:02.995Z,83.52
2023-02-03T05:48:05.006Z,83.47
2023-02-03T05:49:07.916Z,83.50
2023-02-03T05:50:10.011Z,83.60
2023-02-03T05:51:12.832Z,83.70
2023-02-03T05:52:33.922Z,83.66
2023-02-03T05:53:38.185Z,83.61
2023-02-03T05:54:40.060Z,83.60
2023-02-03T05:55:43.001Z,83.80
2023-02-03T05:56:44.803Z,83.78
2023-02-03T05:57:47.559Z,83.67
2023-02-03T05:58:53.124Z,83.77
2023-02-03T05:59:55.960Z,83.80
2023-02-03T06:00:57.905Z,83.81
2023-02-03T06:02:00.709Z,83.78
2023-02-03T06:03:03.667Z,83.82
2023-02-03T06:04:06.925Z,83.78
2023-02-03T06:05:09.252Z,83.81
2023-02-03T06:06:12.044Z,83.89
2023-02-03T06:07:13.819Z,83.95
2023-02-03T06:08:16.614Z,83.88
2023-02-03T06:09:20.705Z,83.90
2023-02-03T06:10:27.858Z,84.05
2023-02-03T06:11:31.028Z,84.05
2023-02-03T06:12:32.820Z,84.03
2023-02-03T06:13:35.989Z,84.14
2023-02-03T06:14:37.801Z,84.10
2023-02-03T06:15:40.862Z,83.65
2023-02-03T06:16:42.722Z,83.90
2023-02-03T06:17:46.393Z,84.06
2023-02-03T06:18:48.187Z,83.87
2023-02-03T06:19:50.976Z,84.03
2023-02-03T06:20:53.912Z,83.96
2023-02-03T06:21:55.729Z,84.03
2023-02-03T06:22:58.479Z,84.19
2023-02-03T06:24:01.320Z,84.00
2023-02-03T06:25:05.172Z,84.02
2023-02-03T06:26:07.957Z,83.93
2023-02-03T06:27:10.280Z,84.08
2023-02-03T06:28:13.037Z,84.05
2023-02-03T06:29:14.838Z,84.08
2023-02-03T06:30:18.246Z,83.94
2023-02-03T06:31:21.062Z,84.20
2023-02-03T06:32:23.460Z,84.11
2023-02-03T06:33:26.646Z,83.90
2023-02-03T06:34:28.428Z,83.97
2023-02-03T06:35:31.180Z,84.05
2023-02-03T06:36:52.700Z,83.87
2023-02-03T06:37:54.632Z,83.97
2023-02-03T06:38:59.174Z,83.93
2023-02-03T06:40:00.929Z,84.00
2023-02-03T06:41:05.804Z,84.08
2023-02-03T06:42:07.794Z,84.14
2023-02-03T06:43:10.588Z,84.04
2023-02-03T06:44:12.466Z,84.07
2023-02-03T06:45:15.635Z,83.97
2023-02-03T06:46:17.432Z,84.07
2023-02-03T06:47:20.289Z,83.93
2023-02-03T06:48:22.537Z,84.05
2023-02-03T06:49:25.366Z,84.11
2023-02-03T06:50:27.921Z,84.23
2023-02-03T06:51:30.820Z,84.42
2023-02-03T06:52:32.589Z,84.36
2023-02-03T06:53:35.783Z,84.32
2023-02-03T06:54:37.529Z,84.25
2023-02-03T06:55:40.254Z,84.29
2023-02-03T06:56:43.441Z,84.13
2023-02-03T06:57:46.818Z,84.13
2023-02-03T06:58:48.697Z,83.95
2023-02-03T06:59:51.826Z,84.14
2023-02-03T07:00:55.665Z,84.36
2023-02-03T07:01:58.526Z,84.15
2023-02-03T07:03:02.250Z,84.14
2023-02-03T07:04:05.688Z,84.11
2023-02-03T07:05:07.858Z,84.02
2023-02-03T07:06:10.962Z,84.19
2023-02-03T07:07:12.786Z,84.13
2023-02-03T07:08:15.504Z,84.07
2023-02-03T07:09:17.735Z,83.83
2023-02-03T07:10:20.914Z,83.68
2023-02-03T07:11:22.839Z,83.84
2023-02-03T07:12:27.464Z,83.92
2023-02-03T07:13:30.298Z,83.67
2023-02-03T07:14:35.592Z,83.48
2023-02-03T07:15:38.782Z,83.69
2023-02-03T07:16:40.636Z,83.54
2023-02-03T07:17:43.388Z,83.57
2023-02-03T07:18:47.609Z,83.62
2023-02-03T07:19:51.054Z,83.34
2023-02-03T07:20:54.009Z,83.57
2023-02-03T07:21:55.941Z,83.54
2023-02-03T07:22:59.151Z,83.25
2023-02-03T07:24:02.358Z,82.98
2023-02-03T07:25:05.863Z,83.45
2023-02-03T07:26:07.871Z,83.37
2023-02-03T07:27:10.639Z,83.15
2023-02-03T07:28:14.840Z,83.12
2023-02-03T07:29:16.608Z,82.64
2023-02-03T07:30:20.859Z,82.57
2023-02-03T07:31:22.737Z,82.99
2023-02-03T07:32:25.593Z,82.82
2023-02-03T07:33:27.861Z,82.82
2023-02-03T07:34:30.716Z,82.58
2023-02-03T07:35:33.537Z,82.69
2023-02-03T07:36:35.359Z,82.80
2023-02-03T07:37:38.221Z,82.73
2023-02-03T07:38:41.002Z,82.87
2023-02-03T07:39:43.803Z,82.88
2023-02-03T07:40:45.733Z,82.15
2023-02-03T07:41:48.449Z,81.05
2023-02-03T07:42:51.437Z,80.71
2023-02-03T07:43:55.598Z,81.52
2023-02-03T07:44:58.364Z,81.39
2023-02-03T07:46:01.754Z,81.46
2023-02-03T07:47:04.609Z,81.21
2023-02-03T07:48:06.455Z,80.66
2023-02-03T07:49:09.525Z,80.53
2023-02-03T07:50:12.113Z,81.03
2023-02-03T07:51:14.990Z,80.65
2023-02-03T07:52:16.799Z,80.61
2023-02-03T07:53:19.623Z,80.70
2023-02-03T07:54:21.440Z,80.29
2023-02-03T07:55:24.184Z,79.53
2023-02-03T07:56:27.141Z,79.99
2023-02-03T07:57:29.008Z,80.56
2023-02-03T07:58:32.230Z,80.49
2023-02-03T07:59:36.419Z,79.61
2023-02-03T08:00:39.191Z,80.06
2023-02-03T08:01:42.307Z,80.01
2023-02-03T08:02:45.677Z,79.46
2023-02-03T08:03:47.413Z,80.48
2023-02-03T08:04:50.206Z,78.74
2023-02-03T08:05:52.412Z,78.28
2023-02-03T08:06:55.215Z,78.65
2023-02-03T08:07:57.084Z,79.09
2023-02-03T08:08:59.909Z,79.16
2023-02-03T08:10:01.777Z,78.82
2023-02-03T08:11:04.817Z,78.98
2023-02-03T08:12:07.272Z,78.99
2023-02-03T08:13:10.104Z,78.87
2023-02-03T08:14:11.877Z,78.31
2023-02-03T08:15:17.207Z,78.76
2023-02-03T08:16:20.059Z,78.67
2023-02-03T08:17:21.922Z,78.89
2023-02-03T08:18:43.993Z,78.35
2023-02-03T08:19:46.821Z,78.20
2023-02-03T08:20:49.026Z,77.87
2023-02-03T08:21:51.825Z,77.54
2023-02-03T08:22:53.755Z,78.09
2023-02-03T08:23:56.554Z,78.24
2023-02-03T08:25:01.252Z,77.52
2023-02-03T08:26:04.074Z,77.73
2023-02-03T08:27:09.825Z,77.38
2023-02-03T08:28:12.908Z,78.75
2023-02-03T08:29:15.679Z,78.73
2023-02-03T08:30:19.227Z,77.55
2023-02-03T08:31:22.067Z,76.96
2023-02-03T08:32:24.974Z,77.78
2023-02-03T08:33:28.795Z,77.57
2023-02-03T08:34:34.063Z,76.92
2023-02-03T08:35:36.858Z,76.20
2023-02-03T08:36:40.070Z,77.17
2023-02-03T08:37:42.968Z,76.95
2023-02-03T08:38:46.051Z,77.84
2023-02-03T08:39:47.820Z,76.91
2023-02-03T08:40:50.629Z,76.97
2023-02-03T08:41:53.566Z,75.98
2023-02-03T08:42:56.301Z,76.50
2023-02-03T08:43:58.297Z,76.48
2023-02-03T08:45:02.843Z,76.13
2023-02-03T08:46:10.590Z,75.72
2023-02-03T08:47:13.920Z,75.56
2023-02-03T08:48:16.832Z,75.60
2023-02-03T08:49:19.247Z,75.50
2023-02-03T08:50:22.101Z,76.29
2023-02-03T08:51:25.550Z,76.67
2023-02-03T08:52:28.696Z,76.62
2023-02-03T08:53:31.553Z,76.62
2023-02-03T08:54:34.582Z,76.29
2023-02-03T08:55:39.960Z,76.01
2023-02-03T08:56:42.822Z,75.76
2023-02-03T08:57:44.732Z,75.49
2023-02-03T08:58:47.463Z,74.27
2023-02-03T08:59:51.544Z,74.85
2023-02-03T09:00:55.415Z,75.62
2023-02-03T09:01:59.925Z,75.13
2023-02-03T09:03:02.794Z,75.69
2023-02-03T09:04:08.262Z,75.27
2023-02-03T09:05:10.301Z,75.69
2023-02-03T09:06:16.615Z,75.90
2023-02-03T09:07:19.398Z,75.62
2023-02-03T09:08:21.139Z,75.42
2023-02-03T09:09:26.387Z,76.56
2023-02-03T09:10:29.923Z,76.23
2023-02-03T09:11:31.993Z,77.03
2023-02-03T09:12:34.853Z,76.79
2023-02-03T09:13:36.839Z,76.08
2023-02-03T09:14:39.772Z,76.68
2023-02-03T09:15:42.588Z,76.54
2023-02-03T09:16:45.441Z,76.49
2023-02-03T09:17:49.572Z,76.39
2023-02-03T09:18:52.931Z,76.13
2023-02-03T09:19:55.780Z,76.71
2023-02-03T09:21:01.348Z,76.96
2023-02-03T09:22:04.949Z,76.51
2023-02-03T09:23:07.774Z,76.03
2023-02-03T09:24:10.572Z,76.39
2023-02-03T09:25:13.879Z,76.71
2023-02-03T09:26:16.715Z,76.12
2023-02-03T09:27:19.464Z,76.21
2023-02-03T09:28:22.339Z,76.68
2023-02-03T09:29:24.300Z,77.25
2023-02-03T09:30:27.542Z,77.15
2023-02-03T09:31:30.725Z,77.68
2023-02-03T09:32:34.046Z,77.35
2023-02-03T09:33:39.547Z,77.65
2023-02-03T09:34:42.359Z,78.11
2023-02-03T09:35:52.976Z,78.16
2023-02-03T09:36:55.930Z,78.78
2023-02-03T09:37:59.647Z,78.89
2023-02-03T09:39:02.496Z,79.27
2023-02-03T09:40:06.160Z,79.83
2023-02-03T09:41:16.886Z,79.83
2023-02-03T09:42:38.254Z,80.04
2023-02-03T09:43:44.399Z,80.69
2023-02-03T09:44:52.681Z,81.07
2023-02-03T09:45:55.456Z,80.59
2023-02-03T09:47:01.998Z,81.10
2023-02-03T09:48:10.482Z,81.40
2023-02-03T09:49:18.612Z,81.37
2023-02-03T09:50:25.217Z,81.41
2023-02-03T09:51:31.181Z,81.20
2023-02-03T09:52:36.176Z,81.68
2023-02-03T09:53:45.292Z,81.86
2023-02-03T09:54:53.637Z,82.29
2023-02-03T09:55:56.509Z,81.73
2023-02-03T09:57:00.311Z,82.54
2023-02-03T09:58:06.878Z,82.30
2023-02-03T09:59:10.811Z,82.50
2023-02-03T10:00:22.544Z,82.33
2023-02-03T10:01:27.197Z,82.69
2023-02-03T10:02:43.957Z,82.72
2023-02-03T10:03:50.004Z,82.69
2023-02-03T10:04:59.470Z,83.29
2023-02-03T10:06:13.889Z,83.00
2023-02-03T10:07:20.776Z,83.06
2023-02-03T10:08:35.069Z,83.05
2023-02-03T10:09:49.114Z,83.37
2023-02-03T10:11:10.444Z,83.33
2023-02-03T10:12:37.230Z,82.84
2023-02-03T10:13:46.037Z,82.98
2023-02-03T10:14:57.419Z,83.27
2023-02-03T10:16:13.156Z,83.35
2023-02-03T10:17:29.057Z,82.86
2023-02-03T10:18:33.560Z,83.33
2023-02-03T10:19:40.213Z,83.35
2023-02-03T10:21:05.609Z,83.30
2023-02-03T10:22:13.245Z,83.62
2023-02-03T10:23:18.223Z,83.62
2023-02-03T10:24:33.303Z,83.31
2023-02-03T10:25:40.776Z,84.11
2023-02-03T10:26:43.662Z,83.54
2023-02-03T10:27:46.616Z,83.55
2023-02-03T10:28:54.250Z,83.37
2023-02-03T10:29:59.392Z,83.63
2023-02-03T10:31:05.783Z,83.70
2023-02-03T10:32:10.487Z,83.58
2023-02-03T10:33:14.049Z,84.02
2023-02-03T10:34:19.276Z,84.08
2023-02-03T10:35:22.886Z,84.10
2023-02-03T10:36:34.628Z,84.46
2023-02-03T10:37:40.400Z,84.19
2023-02-03T10:38:50.861Z,84.19
2023-02-03T10:39:54.083Z,84.31
2023-02-03T10:40:56.906Z,84.81
2023-02-03T10:41:59.008Z,84.77
2023-02-03T10:43:19.690Z,84.62
2023-02-03T10:44:27.009Z,84.74
2023-02-03T10:45:29.154Z,84.89
2023-02-03T10:46:33.737Z,84.67
2023-02-03T10:47:37.021Z,84.35
2023-02-03T10:48:39.745Z,84.35
2023-02-03T10:49:43.547Z,84.57
2023-02-03T10:50:49.704Z,84.47
2023-02-03T10:51:55.731Z,84.50
2023-02-03T10:53:22.171Z,84.98
2023-02-03T10:54:31.927Z,84.85
2023-02-03T10:55:34.023Z,85.30
2023-02-03T10:56:38.963Z,85.15
2023-02-03T10:57:41.816Z,85.01
2023-02-03T10:58:49.642Z,85.14
2023-02-03T10:59:52.482Z,85.50
2023-02-03T11:00:58.214Z,85.65
2023-02-03T11:02:01.836Z,85.50
2023-02-03T11:03:07.617Z,85.79
2023-02-03T11:04:25.104Z,85.78
2023-02-03T11:05:29.117Z,86.26
2023-02-03T11:06:32.511Z,86.72
2023-02-03T11:07:35.602Z,86.08
2023-02-03T11:08:40.257Z,86.08
2023-02-03T11:09:43.749Z,86.14
2023-02-03T11:10:45.574Z,85.98
2023-02-03T11:11:48.408Z,86.06
2023-02-03T11:12:50.163Z,85.98
2023-02-03T11:13:57.253Z,86.11
2023-02-03T11:15:07.261Z,86.15
2023-02-03T11:16:15.447Z,85.97
2023-02-03T11:17:19.592Z,86.15
2023-02-03T11:18:45.114Z,85.71
2023-02-03T11:19:48.775Z,86.24
2023-02-03T11:20:50.571Z,86.10
2023-02-03T11:21:55.975Z,86.22
2023-02-03T11:22:59.727Z,86.13
2023-02-03T11:24:06.199Z,86.12
2023-02-03T11:25:18.539Z,85.99
2023-02-03T11:26:22.086Z,86.31
2023-02-03T11:27:25.404Z,86.43
2023-02-03T11:28:28.374Z,86.63
2023-02-03T11:29:34.348Z,86.46
2023-02-03T11:30:38.003Z,87.05
2023-02-03T11:31:41.254Z,86.90
2023-02-03T11:32:44.025Z,86.63
2023-02-03T11:33:52.048Z,87.00
2023-02-03T11:34:57.974Z,87.14
2023-02-03T11:36:00.153Z,87.25
2023-02-03T11:37:25.983Z,87.29
2023-02-03T11:38:32.590Z,87.27
2023-02-03T11:39:35.820Z,87.41
2023-02-03T11:40:38.608Z,87.48
2023-02-03T11:41:41.729Z,87.84
2023-02-03T11:42:46.178Z,87.74
2023-02-03T11:43:49.227Z,87.81
2023-02-03T11:44:52.249Z,87.88
2023-02-03T11:45:54.859Z,87.59
2023-02-03T11:46:59.668Z,86.93
2023-02-03T11:48:14.103Z,86.96
2023-02-03T11:49:34.402Z,87.46
2023-02-03T11:50:39.597Z,86.88
2023-02-03T11:51:44.987Z,87.10
2023-02-03T11:52:57.397Z,86.84
2023-02-03T11:54:13.348Z,87.26
2023-02-03T11:55:32.620Z,87.04
2023-02-03T11:56:59.537Z,87.30
2023-02-03T11:58:14.071Z,87.05
2023-02-03T11:59:28.565Z,87.33
2023-02-03T12:00:36.974Z,86.93
2023-02-03T12:01:56.078Z,87.05
2023-02-03T12:03:24.299Z,87.55
2023-02-03T12:04:52.221Z,87.40
2023-02-03T12:06:03.547Z,87.51
2023-02-03T12:07:30.672Z,87.35
2023-02-03T12:08:43.758Z,87.57
2023-02-03T12:09:55.718Z,87.94
2023-02-03T12:11:12.760Z,88.00
2023-02-03T12:12:27.547Z,87.78
2023-02-03T12:13:59.269Z,88.01
2023-02-03T12:15:14.207Z,87.86
2023-02-03T12:16:25.911Z,88.03
2023-02-03T12:17:40.548Z,87.87
2023-02-03T12:19:10.229Z,87.72
2023-02-03T12:20:29.398Z,87.78
2023-02-03T12:21:39.985Z,87.71
2023-02-03T12:22:48.582Z,88.01
2023-02-03T12:23:57.099Z,87.90
2023-02-03T12:25:09.361Z,88.26
2023-02-03T12:26:19.488Z,87.89
2023-02-03T12:27:30.056Z,88.39
2023-02-03T12:28:45.053Z,88.26
2023-02-03T12:29:51.574Z,88.39
2023-02-03T12:30:57.349Z,88.32
2023-02-03T12:32:06.668Z,87.96
2023-02-03T12:33:14.971Z,88.34
2023-02-03T12:34:20.524Z,88.45
2023-02-03T12:35:26.735Z,88.40
2023-02-03T12:36:31.046Z,88.69
2023-02-03T12:37:41.802Z,88.49
2023-02-03T12:38:45.835Z,88.84
2023-02-03T12:39:51.541Z,88.65
2023-02-03T12:40:58.054Z,88.97
2023-02-03T12:42:23.172Z,89.30
2023-02-03T12:43:31.581Z,89.00
2023-02-03T12:44:40.481Z,89.50
2023-02-03T12:45:43.736Z,89.30
2023-02-03T12:46:48.977Z,89.31
2023-02-03T12:47:55.335Z,89.28
2023-02-03T12:49:01.649Z,89.65
2023-02-03T12:50:07.547Z,90.21
2023-02-03T12:51:15.283Z,90.29
2023-02-03T12:52:21.519Z,90.65
2023-02-03T12:53:29.374Z,90.70
2023-02-03T12:54:38.629Z,91.21
2023-02-03T12:55:43.338Z,90.97
2023-02-03T12:56:48.578Z,90.71
2023-02-03T12:57:57.616Z,90.58
2023-02-03T12:59:02.411Z,90.69
2023-02-03T13:00:19.540Z,90.45
2023-02-03T13:01:24.309Z,91.09
2023-02-03T13:02:29.933Z,90.97
2023-02-03T13:03:37.644Z,90.91
2023-02-03T13:04:45.336Z,90.93
2023-02-03T13:05:51.701Z,90.73
2023-02-03T13:06:58.617Z,90.94
2023-02-03T13:08:08.891Z,90.86
2023-02-03T13:09:23.446Z,90.97
2023-02-03T13:10:29.237Z,91.29
2023-02-03T13:11:36.227Z,91.35
2023-02-03T13:12:43.192Z,91.83
2023-02-03T13:13:49.293Z,92.15
2023-02-03T13:14:55.589Z,91.96
2023-02-03T13:15:58.695Z,91.61
2023-02-03T13:17:07.909Z,91.88
2023-02-03T13:18:15.892Z,92.57
2023-02-03T13:19:22.332Z,91.82
2023-02-03T13:20:27.407Z,92.32
2023-02-03T13:21:30.529Z,92.03
2023-02-03T13:22:33.348Z,92.27
2023-02-03T13:23:35.877Z,91.89
2023-02-03T13:24:39.769Z,92.19
2023-02-03T13:25:52.262Z,92.16
2023-02-03T13:27:06.804Z,92.05
2023-02-03T13:28:19.996Z,92.57
2023-02-03T13:29:38.300Z,92.69
2023-02-03T13:30:49.625Z,92.42
2023-02-03T13:32:06.035Z,92.31
2023-02-03T13:33:37.928Z,92.23
2023-02-03T13:34:50.764Z,92.56
2023-02-03T13:36:05.158Z,92.92
2023-02-03T13:37:23.916Z,92.45
2023-02-03T13:38:38.723Z,92.72
2023-02-03T13:39:51.343Z,92.94
2023-02-03T13:40:59.480Z,92.40
2023-02-03T13:42:15.420Z,92.48
2023-02-03T13:43:37.615Z,92.75
2023-02-03T13:44:43.234Z,92.51
2023-02-03T13:45:47.693Z,92.57
2023-02-03T13:46:50.620Z,92.37
2023-02-03T13:48:17.213Z,92.88
2023-02-03T13:49:24.505Z,92.87
2023-02-03T13:50:29.830Z,92.54
2023-02-03T13:51:34.748Z,92.76
2023-02-03T13:52:43.075Z,92.50
2023-02-03T13:53:46.322Z,92.65
2023-02-03T13:54:49.091Z,92.69
2023-02-03T13:55:55.951Z,92.77
2023-02-03T13:57:02.184Z,92.24
2023-02-03T13:58:06.145Z,92.79
2023-02-03T13:59:40.924Z,92.34
2023-02-03T14:01:02.432Z,92.55
2023-02-03T14:02:41.765Z,92.25
2023-02-03T14:03:46.261Z,92.18
2023-02-03T14:04:54.428Z,92.28
2023-02-03T14:05:57.146Z,92.18
2023-02-03T14:07:01.960Z,92.53
2023-02-03T14:08:43.334Z,92.86
2023-02-03T14:09:47.900Z,92.62
2023-02-03T14:11:23.621Z,93.04
2023-02-03T14:12:36.978Z,93.17
2023-02-03T14:13:38.963Z,93.26